Anitapolis, Brazil
Current Conditions -  °F | °C
As of 12:00 AM on Sunday 21 Dec 2014 (Local Time) from SBFL Reporting Station
Scattered Clouds Scattered Clouds  
Wind Chill: 79°   Ceiling: Unl
Heat Index: 82°   Visibility: 6mi
Dew Point: 75°   Wind: 15mph
Humidity: 89%   Direction: 10°N
Pressure: 29.71"   Gusts: NA
Location:  27.91°S, 49.12°W
Report Text: SBFL 210200Z 01013KT 9999 SCT010 26/24 Q1006
Loading
Personal Weather Stations






























Interactive Weather Map New forecast layout! Learn more

10-Day Weather Forecast

Advertisements
Track Severe Weather on mobile